createdAt,value
2023-04-18T00:02:24.958Z,99650.47
2023-04-18T00:04:56.839Z,99643.00
2023-04-18T00:07:27.138Z,99648.41
2023-04-18T00:09:57.426Z,99637.13
2023-04-18T00:12:30.299Z,99645.59
2023-04-18T00:15:01.298Z,99644.53
2023-04-18T00:17:32.044Z,99642.34
2023-04-18T00:20:02.600Z,99646.19
2023-04-18T00:22:32.966Z,99651.22
2023-04-18T00:25:03.429Z,99646.53
2023-04-18T00:27:36.335Z,99647.88
2023-04-18T00:30:07.344Z,99646.97
2023-04-18T00:32:37.677Z,99645.97
2023-04-18T00:35:08.911Z,99648.25
2023-04-18T00:37:39.167Z,99648.16
2023-04-18T00:40:11.771Z,99654.00
2023-04-18T00:42:44.622Z,99648.69
2023-04-18T00:45:14.907Z,99647.72
2023-04-18T00:47:45.283Z,99653.09
2023-04-18T00:50:16.469Z,99654.56
2023-04-18T00:52:47.478Z,99652.00
2023-04-18T00:55:18.857Z,99652.16
2023-04-18T00:57:51.779Z,99652.72
2023-04-18T01:00:22.352Z,99655.16
2023-04-18T01:02:54.164Z,99644.00
2023-04-18T01:05:25.628Z,99645.47
2023-04-18T01:07:58.943Z,99657.50
2023-04-18T01:10:30.101Z,99647.78
2023-04-18T01:13:18.755Z,99656.13
2023-04-18T01:15:51.270Z,99646.81
2023-04-18T01:18:22.771Z,99653.81
2023-04-18T01:20:54.117Z,99649.72
2023-04-18T01:23:24.671Z,99646.75
2023-04-18T01:25:57.538Z,99649.94
2023-04-18T01:28:28.025Z,99654.25
2023-04-18T01:30:58.281Z,99657.81
2023-04-18T01:33:28.546Z,99660.69
2023-04-18T01:35:58.773Z,99664.41
2023-04-18T01:38:29.142Z,99662.91
2023-04-18T01:41:02.670Z,99666.47
2023-04-18T01:43:33.108Z,99663.41
2023-04-18T01:46:03.458Z,99662.97
2023-04-18T01:48:33.775Z,99674.19
2023-04-18T01:51:04.019Z,99659.41
2023-04-18T01:53:34.470Z,99668.22
2023-04-18T01:56:07.637Z,99670.03
2023-04-18T01:58:38.167Z,99643.56
2023-04-18T02:01:08.694Z,99673.03
2023-04-18T02:03:39.347Z,99663.81
2023-04-18T02:06:10.322Z,99667.66
2023-04-18T02:08:40.651Z,99666.09
2023-04-18T02:11:13.584Z,99673.34
2023-04-18T02:13:43.823Z,99663.25
2023-04-18T02:16:15.555Z,99660.75
2023-04-18T02:18:46.582Z,99667.31
2023-04-18T02:21:16.905Z,99672.53
2023-04-18T02:23:47.659Z,99673.97
2023-04-18T02:26:20.659Z,99663.25
2023-04-18T02:28:51.155Z,99675.78
2023-04-18T02:31:21.477Z,99667.38
2023-04-18T02:33:51.823Z,99680.56
2023-04-18T02:36:24.675Z,99662.22
2023-04-18T02:38:55.053Z,99685.41
2023-04-18T02:41:27.993Z,99666.63
2023-04-18T02:43:58.403Z,99675.63
2023-04-18T02:46:28.713Z,99682.09
2023-04-18T02:48:58.992Z,99675.84
2023-04-18T02:51:29.539Z,99675.69
2023-04-18T02:53:59.895Z,99680.19
2023-04-18T02:56:32.739Z,99676.25
2023-04-18T02:59:03.006Z,99671.34
2023-04-18T03:01:33.676Z,99668.50
2023-04-18T03:04:04.137Z,99681.25
2023-04-18T03:06:34.704Z,99677.06
2023-04-18T03:09:05.728Z,99683.25
2023-04-18T03:11:40.800Z,99683.00
2023-04-18T03:14:11.351Z,99678.97
2023-04-18T03:16:41.908Z,99684.34
2023-04-18T03:19:12.535Z,99680.06
2023-04-18T03:21:42.873Z,99687.25
2023-04-18T03:24:13.483Z,99688.81
2023-04-18T03:26:46.844Z,99681.31
2023-04-18T03:29:17.101Z,99684.88
2023-04-18T03:31:47.341Z,99682.38
2023-04-18T03:34:17.764Z,99682.38
2023-04-18T03:36:48.392Z,99689.97
2023-04-18T03:39:18.633Z,99688.19
2023-04-18T03:41:52.437Z,99688.06
2023-04-18T03:44:22.726Z,99691.94
2023-04-18T03:46:54.289Z,99687.09
2023-04-18T03:49:24.539Z,99687.03
2023-04-18T03:51:54.794Z,99693.47
2023-04-18T03:54:25.254Z,99693.34
2023-04-18T03:56:59.600Z,99697.97
2023-04-18T03:59:30.170Z,99704.09
2023-04-18T04:02:00.690Z,99710.25
2023-04-18T04:04:31.089Z,99700.78
2023-04-18T04:07:01.593Z,99707.91
2023-04-18T04:09:31.929Z,99714.38
2023-04-18T04:12:05.273Z,99724.94
2023-04-18T04:14:35.676Z,99724.84
2023-04-18T04:17:05.934Z,99729.13
2023-04-18T04:19:38.600Z,99723.19
2023-04-18T04:22:09.245Z,99731.34
2023-04-18T04:24:40.722Z,99722.47
2023-04-18T04:27:13.773Z,99726.63
2023-04-18T04:29:44.535Z,99724.03
2023-04-18T04:32:17.084Z,99725.19
2023-04-18T04:34:47.361Z,99737.25
2023-04-18T04:37:18.877Z,99738.63
2023-04-18T04:39:49.236Z,99743.81
2023-04-18T04:42:25.578Z,99739.84
2023-04-18T04:44:56.808Z,99742.44
2023-04-18T04:47:27.238Z,99737.66
2023-04-18T04:49:57.937Z,99733.91
2023-04-18T04:52:28.252Z,99737.03
2023-04-18T04:54:58.569Z,99741.19
2023-04-18T04:57:31.361Z,99743.19
2023-04-18T05:00:01.836Z,99748.88
2023-04-18T05:02:32.195Z,99746.00
2023-04-18T05:05:02.548Z,99751.38
2023-04-18T05:07:33.444Z,99742.72
2023-04-18T05:10:04.486Z,99757.03
2023-04-18T05:12:37.566Z,99754.53
2023-04-18T05:15:09.075Z,99749.66
2023-04-18T05:17:41.592Z,99756.66
2023-04-18T05:20:13.124Z,99752.34
2023-04-18T05:22:43.704Z,99759.66
2023-04-18T05:25:16.837Z,99758.22
2023-04-18T05:27:49.885Z,99758.56
2023-04-18T05:30:20.788Z,99767.53
2023-04-18T05:32:51.106Z,99760.91
2023-04-18T05:35:21.711Z,99765.91
2023-04-18T05:37:52.344Z,99760.53
2023-04-18T05:40:22.881Z,99762.00
2023-04-18T05:42:56.012Z,99763.34
2023-04-18T05:45:26.231Z,99763.34
2023-04-18T05:47:59.483Z,99768.66
2023-04-18T05:50:29.833Z,99769.91
2023-04-18T05:53:01.456Z,99766.78
2023-04-18T05:55:31.798Z,99767.09
2023-04-18T05:58:09.900Z,99761.34
2023-04-18T06:00:40.613Z,99765.44
2023-04-18T06:03:11.300Z,99765.78
2023-04-18T06:05:42.118Z,99766.41
2023-04-18T06:08:12.587Z,99759.59
2023-04-18T06:10:42.853Z,99760.09
2023-04-18T06:13:16.888Z,99764.75
2023-04-18T06:15:47.191Z,99763.78
2023-04-18T06:18:17.547Z,99764.25
2023-04-18T06:20:47.827Z,99765.91
2023-04-18T06:23:18.806Z,99773.53
2023-04-18T06:25:51.536Z,99771.38
2023-04-18T06:28:24.656Z,99776.16
2023-04-18T06:30:55.020Z,99768.72
2023-04-18T06:33:25.522Z,99777.91
2023-04-18T06:35:56.074Z,99778.66
2023-04-18T06:38:26.528Z,99774.56
2023-04-18T06:40:56.995Z,99774.38
2023-04-18T06:43:29.932Z,99773.97
2023-04-18T06:46:00.289Z,99778.34
2023-04-18T06:48:37.309Z,99781.50
2023-04-18T06:51:08.046Z,99777.06
2023-04-18T06:53:38.369Z,99778.81
2023-04-18T06:56:09.826Z,99782.28
2023-04-18T06:58:42.802Z,99784.47
2023-04-18T07:01:13.169Z,99790.22
2023-04-18T07:03:43.545Z,99782.72
2023-04-18T07:06:13.948Z,99790.75
2023-04-18T07:08:44.380Z,99787.66
2023-04-18T07:11:18.862Z,99788.41
2023-04-18T07:13:51.850Z,99794.28
2023-04-18T07:16:22.551Z,99793.19
2023-04-18T07:18:52.881Z,99794.16
2023-04-18T07:21:25.876Z,99790.03
2023-04-18T07:23:56.098Z,99803.88
2023-04-18T07:26:27.764Z,99799.28
2023-04-18T07:29:03.524Z,99807.69
2023-04-18T07:31:34.338Z,99801.84
2023-04-18T07:34:05.062Z,99806.22
2023-04-18T07:36:35.612Z,99803.25
2023-04-18T07:39:06.063Z,99819.41
2023-04-18T07:41:36.481Z,99831.72
2023-04-18T07:44:09.759Z,99823.72
2023-04-18T07:46:40.206Z,99837.56
2023-04-18T07:49:10.711Z,99819.84
2023-04-18T07:51:41.119Z,99839.56
2023-04-18T07:54:14.008Z,99834.59
2023-04-18T07:56:46.926Z,99831.69
2023-04-18T07:59:19.864Z,99838.84
2023-04-18T08:01:50.207Z,99833.41
2023-04-18T08:04:21.020Z,99834.31
2023-04-18T08:06:51.389Z,99846.41
2023-04-18T08:09:22.110Z,99845.78
2023-04-18T08:11:52.343Z,99840.63
2023-04-18T08:14:25.186Z,99846.00
2023-04-18T08:16:55.522Z,99844.59
2023-04-18T08:19:25.780Z,99844.91
2023-04-18T08:21:56.065Z,99814.56
2023-04-18T08:24:26.539Z,99848.72
2023-04-18T08:26:57.696Z,99861.19
2023-04-18T08:29:30.598Z,99857.63
2023-04-18T08:32:01.231Z,99856.63
2023-04-18T08:34:31.851Z,99859.16
2023-04-18T08:37:02.243Z,99847.81
2023-04-18T08:39:32.465Z,99861.50
2023-04-18T08:42:03.793Z,99852.28
2023-04-18T08:44:37.647Z,99857.81
2023-04-18T08:47:07.870Z,99860.47
2023-04-18T08:49:38.478Z,99853.78
2023-04-18T08:52:14.243Z,99865.34
2023-04-18T08:54:45.549Z,99861.50
2023-04-18T08:57:18.552Z,99857.50
2023-04-18T08:59:51.439Z,99878.53
2023-04-18T09:02:22.242Z,99863.50
2023-04-18T09:04:56.124Z,99871.97
2023-04-18T09:07:30.650Z,99872.88
2023-04-18T09:10:00.628Z,99862.59
2023-04-18T09:12:32.828Z,99867.16
2023-04-18T09:15:16.888Z,99864.06
2023-04-18T09:17:52.530Z,99854.09
2023-04-18T09:20:35.001Z,99874.94
2023-04-18T09:23:10.976Z,99863.78
2023-04-18T09:25:48.253Z,99851.78
2023-04-18T09:28:27.205Z,99879.63
2023-04-18T09:31:01.865Z,99868.34
2023-04-18T09:33:37.289Z,99878.31
2023-04-18T09:36:20.969Z,99873.72
2023-04-18T09:38:54.620Z,99866.78
2023-04-18T09:41:27.307Z,99873.22
2023-04-18T09:44:14.964Z,99865.66
2023-04-18T09:46:49.719Z,99881.13
2023-04-18T09:49:20.922Z,99864.53
2023-04-18T09:51:54.195Z,99858.63
2023-04-18T09:54:27.432Z,99865.66
2023-04-18T09:56:59.103Z,99870.47
2023-04-18T09:59:40.548Z,99870.41
2023-04-18T10:02:21.457Z,99859.91
2023-04-18T10:04:54.347Z,99869.66
2023-04-18T10:07:27.309Z,99866.53
2023-04-18T10:09:57.596Z,99869.56
2023-04-18T10:12:28.416Z,99874.44
2023-04-18T10:14:59.181Z,99867.66
2023-04-18T10:17:32.672Z,99887.91
2023-04-18T10:20:11.334Z,99878.47
2023-04-18T10:22:41.765Z,99886.53
2023-04-18T10:25:12.515Z,99880.34
2023-04-18T10:28:02.435Z,99887.34
2023-04-18T10:30:57.892Z,99886.38
2023-04-18T10:33:34.480Z,99886.81
2023-04-18T10:36:20.959Z,99887.63
2023-04-18T10:38:52.860Z,99878.38
2023-04-18T10:41:25.452Z,99876.78
2023-04-18T10:44:18.630Z,99881.13
2023-04-18T10:47:18.890Z,99879.59
2023-04-18T10:50:01.533Z,99877.16
2023-04-18T10:52:32.572Z,99879.72
2023-04-18T10:55:16.815Z,99880.97
2023-04-18T10:57:48.623Z,99867.25
2023-04-18T11:00:22.090Z,99872.84
2023-04-18T11:02:56.323Z,99872.53
2023-04-18T11:05:31.824Z,99868.63
2023-04-18T11:08:02.155Z,99864.97
2023-04-18T11:10:33.088Z,99863.03
2023-04-18T11:13:05.697Z,99865.63
2023-04-18T11:15:40.195Z,99863.50
2023-04-18T11:18:12.494Z,99864.69
2023-04-18T11:20:50.494Z,99859.81
2023-04-18T11:23:24.115Z,99859.59
2023-04-18T11:25:56.668Z,99866.47
2023-04-18T11:28:28.701Z,99875.06
2023-04-18T11:31:03.276Z,99879.69
2023-04-18T11:33:33.736Z,99873.75
2023-04-18T11:36:07.895Z,99882.09
2023-04-18T11:38:40.283Z,99874.19
2023-04-18T11:41:15.734Z,99864.94
2023-04-18T11:43:47.237Z,99868.97
2023-04-18T11:46:17.529Z,99865.38
2023-04-18T11:48:50.406Z,99861.88
2023-04-18T11:51:48.210Z,99865.94
2023-04-18T11:54:40.672Z,99856.78
2023-04-18T11:57:23.068Z,99857.88
2023-04-18T11:59:55.650Z,99858.13
2023-04-18T12:02:28.139Z,99852.38
2023-04-18T12:05:01.254Z,99855.97
2023-04-18T12:07:39.372Z,99853.75
2023-04-18T12:10:28.738Z,99854.09
2023-04-18T12:13:01.822Z,99848.88
2023-04-18T12:15:34.172Z,99852.09
2023-04-18T12:18:05.530Z,99855.88
2023-04-18T12:20:40.033Z,99860.28
2023-04-18T12:23:17.769Z,99853.44
2023-04-18T12:25:48.708Z,99843.78
2023-04-18T12:28:20.205Z,99841.06
2023-04-18T12:30:50.805Z,99832.38
2023-04-18T12:33:21.299Z,99838.59
2023-04-18T12:35:52.805Z,99841.69
2023-04-18T12:38:27.486Z,99828.25
2023-04-18T12:40:57.783Z,99828.66
2023-04-18T12:43:28.197Z,99829.25
2023-04-18T12:45:59.681Z,99829.56
2023-04-18T12:48:30.203Z,99835.66
2023-04-18T12:51:03.591Z,99831.06
2023-04-18T12:53:39.497Z,99823.31
2023-04-18T12:56:10.157Z,99811.34
2023-04-18T12:58:40.753Z,99830.03
2023-04-18T13:01:11.139Z,99821.66
2023-04-18T13:03:41.688Z,99820.25
2023-04-18T13:06:14.671Z,99820.69
2023-04-18T13:08:47.754Z,99822.66
2023-04-18T13:11:18.083Z,99818.56
2023-04-18T13:13:48.729Z,99830.56
2023-04-18T13:16:19.367Z,99832.56
2023-04-18T13:18:49.793Z,99825.66
2023-04-18T13:21:20.218Z,99828.22
2023-04-18T13:23:53.290Z,99823.00
2023-04-18T13:26:23.778Z,99834.88
2023-04-18T13:28:54.155Z,99828.28
2023-04-18T13:31:24.488Z,99828.00
2023-04-18T13:33:55.022Z,99838.00
2023-04-18T13:36:27.903Z,99837.50
2023-04-18T13:39:01.441Z,99850.25
2023-04-18T13:41:35.545Z,99844.56
2023-04-18T13:44:06.457Z,99832.31
2023-04-18T13:46:36.926Z,99831.94
2023-04-18T13:49:07.945Z,99823.59
2023-04-18T13:51:38.622Z,99835.31
2023-04-18T13:54:14.923Z,99829.00
2023-04-18T13:56:45.771Z,99837.31
2023-04-18T13:59:17.704Z,99823.19
2023-04-18T14:01:49.654Z,99829.84
2023-04-18T14:04:20.119Z,99827.28
2023-04-18T14:06:51.216Z,99824.09
2023-04-18T14:09:24.425Z,99830.16
2023-04-18T14:11:54.734Z,99832.22
2023-04-18T14:14:26.082Z,99821.84
2023-04-18T14:16:56.564Z,99818.50
2023-04-18T14:19:26.869Z,99809.78
2023-04-18T14:21:59.339Z,99817.88
2023-04-18T14:24:32.245Z,99812.97
2023-04-18T14:27:02.780Z,99814.56
2023-04-18T14:29:33.233Z,99814.44
2023-04-18T14:32:04.224Z,99806.63
2023-04-18T14:34:36.642Z,99796.63
2023-04-18T14:37:07.835Z,99795.81
2023-04-18T14:39:41.330Z,99794.63
2023-04-18T14:42:11.558Z,99811.75
2023-04-18T14:44:41.835Z,99801.09
2023-04-18T14:47:12.346Z,99800.47
2023-04-18T14:49:42.686Z,99787.03
2023-04-18T14:52:13.179Z,99794.66
2023-04-18T14:54:46.456Z,99795.94
2023-04-18T14:57:19.526Z,99790.69
2023-04-18T14:59:51.071Z,99784.09
2023-04-18T15:02:21.956Z,99783.56
2023-04-18T15:04:53.686Z,99788.91
2023-04-18T15:07:24.086Z,99780.38
2023-04-18T15:09:57.079Z,99787.63
2023-04-18T15:12:27.791Z,99778.19
2023-04-18T15:14:58.489Z,99771.44
2023-04-18T15:17:29.607Z,99768.13
2023-04-18T15:20:06.498Z,99773.94
2023-04-18T15:22:37.645Z,99767.41
2023-04-18T15:25:16.456Z,99768.66
2023-04-18T15:27:47.158Z,99768.84
2023-04-18T15:30:18.024Z,99761.84
2023-04-18T15:32:50.535Z,99763.66
2023-04-18T15:35:20.816Z,99758.00
2023-04-18T15:37:54.035Z,99761.63
2023-04-18T15:40:27.307Z,99770.03
2023-04-18T15:42:59.885Z,99762.16
2023-04-18T15:45:30.247Z,99767.28
2023-04-18T15:48:00.942Z,99783.59
2023-04-18T15:50:33.410Z,99769.31
2023-04-18T15:53:04.773Z,99787.34
2023-04-18T15:55:37.968Z,99780.53
2023-04-18T15:58:08.322Z,99787.59
2023-04-18T16:00:38.657Z,99789.50
2023-04-18T16:03:10.598Z,99788.97
2023-04-18T16:05:41.386Z,99793.22
2023-04-18T16:08:12.026Z,99790.03
2023-04-18T16:10:45.467Z,99785.28
2023-04-18T16:13:16.282Z,99796.59
2023-04-18T16:15:46.712Z,99806.13
2023-04-18T16:18:17.078Z,99799.31
2023-04-18T16:20:48.653Z,99805.97
2023-04-18T16:23:20.683Z,99804.34
2023-04-18T16:25:55.365Z,99809.63
2023-04-18T16:28:26.572Z,99808.38
2023-04-18T16:30:56.864Z,99810.66
2023-04-18T16:33:27.441Z,99815.34
2023-04-18T16:36:00.116Z,99815.31
2023-04-18T16:38:30.445Z,99824.97
2023-04-18T16:41:06.249Z,99823.19
2023-04-18T16:43:38.205Z,99828.97
2023-04-18T16:46:08.824Z,99824.47
2023-04-18T16:48:39.646Z,99828.91
2023-04-18T16:51:10.056Z,99836.69
2023-04-18T16:53:40.303Z,99838.75
2023-04-18T16:56:13.261Z,99830.13
2023-04-18T16:58:44.076Z,99840.44
2023-04-18T17:01:14.333Z,99827.50
2023-04-18T17:03:45.138Z,99833.34
2023-04-18T17:06:19.669Z,99832.03
2023-04-18T17:08:53.748Z,99840.81
2023-04-18T17:11:26.774Z,99846.13
2023-04-18T17:13:56.971Z,99838.81
2023-04-18T17:16:27.271Z,99842.78
2023-04-18T17:18:57.587Z,99856.66
2023-04-18T17:21:28.426Z,99842.16
2023-04-18T17:23:59.530Z,99854.81
2023-04-18T17:26:32.711Z,99854.50
2023-04-18T17:29:04.552Z,99862.41
2023-04-18T17:31:35.240Z,99853.81
2023-04-18T17:34:06.299Z,99864.63
2023-04-18T17:36:36.705Z,99873.00
2023-04-18T17:39:08.417Z,99875.44
2023-04-18T17:41:41.767Z,99872.28
2023-04-18T17:44:12.070Z,99867.69
2023-04-18T17:46:43.613Z,99884.06
2023-04-18T17:49:14.569Z,99874.06
2023-04-18T17:51:45.160Z,99874.19
2023-04-18T17:54:15.498Z,99886.72
2023-04-18T17:56:48.521Z,99883.06
2023-04-18T17:59:18.812Z,99891.53
2023-04-18T18:01:51.617Z,99890.50
2023-04-18T18:04:24.820Z,99885.25
2023-04-18T18:06:57.543Z,99890.03
2023-04-18T18:09:28.060Z,99887.44
2023-04-18T18:12:00.879Z,99886.16
2023-04-18T18:14:31.188Z,99901.44
2023-04-18T18:17:01.481Z,99898.34
2023-04-18T18:19:31.922Z,99906.19
2023-04-18T18:22:02.169Z,99909.09
2023-04-18T18:24:32.422Z,99906.09
2023-04-18T18:27:05.277Z,99909.81
2023-04-18T18:29:35.556Z,99901.66
2023-04-18T18:32:06.105Z,99898.69
2023-04-18T18:34:36.494Z,99902.75
2023-04-18T18:37:06.735Z,99905.78
2023-04-18T18:39:37.056Z,99899.78
2023-04-18T18:42:09.966Z,99898.13
2023-04-18T18:44:40.298Z,99899.78
2023-04-18T18:47:10.715Z,99899.69
2023-04-18T18:49:41.040Z,99898.44
2023-04-18T18:52:11.372Z,99893.94
2023-04-18T18:54:41.896Z,99896.28
2023-04-18T18:57:14.847Z,99896.44
2023-04-18T18:59:45.104Z,99893.13
2023-04-18T19:02:15.479Z,99894.13
2023-04-18T19:04:46.011Z,99897.44
2023-04-18T19:07:16.395Z,99892.44
2023-04-18T19:09:46.958Z,99898.03
2023-04-18T19:12:19.920Z,99886.38
2023-04-18T19:14:52.898Z,99889.72
2023-04-18T19:17:25.197Z,99884.06
2023-04-18T19:19:58.122Z,99893.09
2023-04-18T19:22:28.511Z,99889.72
2023-04-18T19:25:01.046Z,99878.41
2023-04-18T19:27:34.294Z,99882.13
2023-04-18T19:30:04.646Z,99881.59
2023-04-18T19:32:36.274Z,99880.22
2023-04-18T19:35:07.123Z,99880.06
2023-04-18T19:37:37.389Z,99875.38
2023-04-18T19:40:09.305Z,99881.50
2023-04-18T19:42:42.404Z,99884.41
2023-04-18T19:45:15.345Z,99876.03
2023-04-18T19:47:47.881Z,99878.06
2023-04-18T19:50:18.254Z,99872.78
2023-04-18T19:52:48.567Z,99880.38
2023-04-18T19:55:18.939Z,99877.06
2023-04-18T19:57:52.033Z,99878.09
2023-04-18T20:00:23.780Z,99874.22
2023-04-18T20:02:54.715Z,99877.88
2023-04-18T20:05:25.446Z,99866.41
2023-04-18T20:07:55.700Z,99872.03
2023-04-18T20:10:26.290Z,99865.09
2023-04-18T20:12:59.767Z,99879.69
2023-04-18T20:15:30.687Z,99869.22
2023-04-18T20:18:01.235Z,99878.34
2023-04-18T20:20:31.941Z,99874.84
2023-04-18T20:23:03.540Z,99865.81
2023-04-18T20:25:34.829Z,99873.28
2023-04-18T20:28:10.874Z,99863.63
2023-04-18T20:30:49.226Z,99878.13
2023-04-18T20:33:19.602Z,99875.28
2023-04-18T20:35:49.992Z,99874.44
2023-04-18T20:38:20.334Z,99871.63
2023-04-18T20:40:53.078Z,99869.59
2023-04-18T20:43:27.029Z,99865.72
2023-04-18T20:45:58.108Z,99863.03
2023-04-18T20:48:28.902Z,99860.88
2023-04-18T20:50:59.197Z,99860.03
2023-04-18T20:53:30.079Z,99868.03
2023-04-18T20:56:00.448Z,99858.91
2023-04-18T20:58:36.403Z,99860.03
2023-04-18T21:01:07.302Z,99864.50
2023-04-18T21:03:37.803Z,99862.94
2023-04-18T21:06:08.355Z,99855.97
2023-04-18T21:08:39.581Z,99868.06
2023-04-18T21:11:10.150Z,99858.25
2023-04-18T21:13:43.041Z,99855.50
2023-04-18T21:16:13.310Z,99855.28
2023-04-18T21:18:43.659Z,99851.25
2023-04-18T21:21:13.922Z,99855.41
2023-04-18T21:23:45.415Z,99849.41
2023-04-18T21:26:16.598Z,99852.22
2023-04-18T21:29:01.223Z,99844.00
2023-04-18T21:31:33.956Z,99844.09
2023-04-18T21:34:05.710Z,99843.47
2023-04-18T21:36:36.222Z,99844.16
2023-04-18T21:39:06.863Z,99834.31
2023-04-18T21:41:37.138Z,99840.91
2023-04-18T21:44:10.788Z,99843.09
2023-04-18T21:46:41.092Z,99844.09
2023-04-18T21:49:11.531Z,99847.38
2023-04-18T21:51:42.035Z,99845.06
2023-04-18T21:54:12.535Z,99839.03
2023-04-18T21:56:43.181Z,99832.91
2023-04-18T21:59:16.421Z,99829.72
2023-04-18T22:01:47.184Z,99835.78
2023-04-18T22:04:21.201Z,99832.00
2023-04-18T22:06:54.317Z,99837.63
2023-04-18T22:09:24.722Z,99831.94
2023-04-18T22:11:57.177Z,99828.53
2023-04-18T22:14:30.136Z,99837.19
2023-04-18T22:17:00.565Z,99833.59
2023-04-18T22:19:31.578Z,99832.69
2023-04-18T22:22:02.167Z,99829.59
2023-04-18T22:24:32.501Z,99824.09
2023-04-18T22:27:04.346Z,99819.66
2023-04-18T22:29:37.275Z,99827.66
2023-04-18T22:32:10.413Z,99820.47
2023-04-18T22:34:40.848Z,99810.59
2023-04-18T22:37:11.060Z,99816.47
2023-04-18T22:39:41.376Z,99813.53
2023-04-18T22:42:11.834Z,99812.03
2023-04-18T22:44:45.003Z,99810.19
2023-04-18T22:47:15.359Z,99807.34
2023-04-18T22:49:46.160Z,99814.75
2023-04-18T22:52:16.901Z,99807.63
2023-04-18T22:54:47.127Z,99807.34
2023-04-18T22:57:17.395Z,99805.69
2023-04-18T22:59:50.350Z,99806.50
2023-04-18T23:02:20.760Z,99802.47
2023-04-18T23:04:51.295Z,99795.19
2023-04-18T23:07:21.727Z,99794.25
2023-04-18T23:09:52.044Z,99800.66
2023-04-18T23:12:22.317Z,99786.88
2023-04-18T23:14:55.197Z,99791.75
2023-04-18T23:17:25.432Z,99786.94
2023-04-18T23:19:56.004Z,99779.03
2023-04-18T23:22:26.968Z,99777.38
2023-04-18T23:24:57.830Z,99776.56
2023-04-18T23:27:28.184Z,99772.66
2023-04-18T23:30:01.162Z,99768.53
2023-04-18T23:32:33.090Z,99768.91
2023-04-18T23:35:04.437Z,99757.38
2023-04-18T23:37:34.756Z,99761.56
2023-04-18T23:40:07.035Z,99756.56
2023-04-18T23:42:37.679Z,99754.88
2023-04-18T23:45:11.365Z,99748.50
2023-04-18T23:47:41.778Z,99755.19
2023-04-18T23:50:13.019Z,99753.00
2023-04-18T23:52:43.318Z,99756.78
2023-04-18T23:55:13.594Z,99754.72
2023-04-18T23:57:44.579Z,99753.72
